TimeCST,TemperatureF,Dew PointF,Humidity,Sea Level PressureIn,VisibilityMPH,Wind Direction,Wind SpeedMPH,Gust SpeedMPH,PrecipitationIn,Events,Conditions,WindDirDegrees,DateUTC
12:15 AM,28.4,14.0,55,30.34,10.0,Calm,Calm,-,N/A,,Clear,0,2013-02-02 06:15:00
12:35 AM,26.6,15.8,64,30.34,10.0,Calm,Calm,-,N/A,,Clear,0,2013-02-02 06:35:00
12:55 AM,28.4,14.0,55,30.33,10.0,SE,3.5,-,N/A,,Clear,140,2013-02-02 06:55:00
1:15 AM,26.6,17.6,69,30.33,10.0,Calm,Calm,-,N/A,,Clear,0,2013-02-02 07:15:00
1:35 AM,24.8,15.8,69,30.32,10.0,Calm,Calm,-,N/A,,Clear,0,2013-02-02 07:35:00
2:15 AM,28.4,15.8,59,30.31,10.0,Calm,Calm,-,N/A,,Clear,0,2013-02-02 08:15:00
2:35 AM,28.4,14.0,55,30.31,10.0,SE,3.5,-,N/A,,Clear,140,2013-02-02 08:35:00
2:55 AM,28.4,14.0,55,30.30,10.0,SE,4.6,-,N/A,,Clear,140,2013-02-02 08:55:00
3:15 AM,28.4,14.0,55,30.30,10.0,SSE,4.6,-,N/A,,Clear,150,2013-02-02 09:15:00
3:35 AM,28.4,14.0,55,30.29,10.0,Calm,Calm,-,N/A,,Clear,0,2013-02-02 09:35:00
3:55 AM,28.4,14.0,55,30.29,10.0,Calm,Calm,-,N/A,,Scattered Clouds,0,2013-02-02 09:55:00
4:15 AM,28.4,14.0,55,30.30,10.0,SSE,3.5,-,N/A,,Clear,150,2013-02-02 10:15:00
4:35 AM,28.4,14.0,55,30.29,10.0,SE,4.6,-,N/A,,Clear,140,2013-02-02 10:35:00
4:55 AM,28.4,14.0,55,30.28,10.0,SE,3.5,-,N/A,,Clear,140,2013-02-02 10:55:00
5:15 AM,28.4,14.0,55,30.27,10.0,SE,5.8,-,N/A,,Clear,140,2013-02-02 11:15:00
5:35 AM,28.4,14.0,55,30.27,10.0,SE,6.9,-,N/A,,Clear,140,2013-02-02 11:35:00
5:55 AM,28.4,14.0,55,30.27,10.0,SE,4.6,-,N/A,,Clear,130,2013-02-02 11:55:00
6:15 AM,28.4,14.0,55,30.26,10.0,SE,4.6,-,N/A,,Scattered Clouds,140,2013-02-02 12:15:00
6:35 AM,28.4,14.0,55,30.25,10.0,SSE,9.2,-,N/A,,Scattered Clouds,150,2013-02-02 12:35:00
6:55 AM,30.2,14.0,51,30.26,10.0,SE,6.9,-,N/A,,Mostly Cloudy,140,2013-02-02 12:55:00
7:15 AM,30.2,12.2,47,30.25,10.0,SE,3.5,-,N/A,,Overcast,140,2013-02-02 13:15:00
7:35 AM,32.0,12.2,44,30.26,10.0,SSE,4.6,-,N/A,,Overcast,160,2013-02-02 13:35:00
7:55 AM,32.0,15.8,51,30.29,10.0,North,4.6,-,N/A,,Overcast,350,2013-02-02 13:55:00
8:15 AM,30.2,17.6,60,30.34,7.0,North,10.4,-,N/A,Snow,Light Snow,350,2013-02-02 14:15:00
8:35 AM,32.0,17.6,55,30.34,10.0,East,3.5,-,N/A,,Overcast,100,2013-02-02 14:35:00
8:55 AM,30.2,21.2,69,30.31,2.0,ESE,5.8,-,N/A,Snow,Light Snow,110,2013-02-02 14:55:00
9:15 AM,30.2,24.8,80,30.27,4.0,SE,10.4,-,N/A,Snow,Light Snow,130,2013-02-02 15:15:00
9:35 AM,30.2,24.8,80,30.26,10.0,SSE,5.8,-,N/A,,Mostly Cloudy,150,2013-02-02 15:35:00
9:55 AM,30.2,24.8,80,30.25,10.0,SSE,9.2,-,N/A,,Mostly Cloudy,160,2013-02-02 15:55:00
10:15 AM,32.0,23.0,69,30.24,10.0,SSE,6.9,-,N/A,,Overcast,160,2013-02-02 16:15:00
10:35 AM,33.8,23.0,65,30.23,10.0,SSE,6.9,-,N/A,,Overcast,150,2013-02-02 16:35:00
10:55 AM,33.8,23.0,65,30.23,10.0,South,4.6,-,N/A,,Overcast,170,2013-02-02 16:55:00
11:15 AM,37.4,21.2,52,30.22,10.0,South,9.2,-,N/A,,Mostly Cloudy,190,2013-02-02 17:15:00
11:55 AM,37.4,23.0,56,30.20,10.0,SSW,10.4,-,N/A,,Overcast,200,2013-02-02 17:55:00
12:15 PM,37.4,21.2,52,30.18,10.0,South,10.4,-,N/A,Rain,Rain,180,2013-02-02 18:15:00
12:35 PM,37.4,23.0,56,30.17,10.0,South,9.2,-,N/A,Rain,Light Rain,180,2013-02-02 18:35:00
12:55 PM,37.4,24.8,60,30.15,10.0,South,5.8,-,N/A,,Overcast,170,2013-02-02 18:55:00
1:15 PM,37.4,24.8,60,30.14,10.0,SE,3.5,-,N/A,,Overcast,140,2013-02-02 19:15:00
1:35 PM,37.4,26.6,65,30.14,10.0,SSE,3.5,-,N/A,,Overcast,150,2013-02-02 19:35:00
1:55 PM,37.4,26.6,65,30.14,10.0,Calm,Calm,-,N/A,Rain,Light Rain,0,2013-02-02 19:55:00
2:15 PM,37.4,28.4,70,30.14,10.0,Calm,Calm,-,N/A,,Overcast,0,2013-02-02 20:15:00
2:35 PM,37.4,28.4,70,30.14,10.0,Calm,Calm,-,N/A,,Overcast,0,2013-02-02 20:35:00
2:55 PM,35.6,28.4,75,30.14,10.0,Calm,Calm,-,N/A,Rain,Light Rain,0,2013-02-02 20:55:00
3:15 PM,37.4,28.4,70,30.14,10.0,Calm,Calm,-,N/A,Rain,Light Rain,0,2013-02-02 21:15:00
3:35 PM,37.4,28.4,70,30.14,10.0,Calm,Calm,-,N/A,,Overcast,0,2013-02-02 21:35:00
3:55 PM,37.4,30.2,75,30.13,10.0,SE,3.5,-,N/A,,Overcast,130,2013-02-02 21:55:00
4:15 PM,37.4,30.2,75,30.12,10.0,SSE,3.5,-,N/A,,Scattered Clouds,160,2013-02-02 22:15:00
4:35 PM,39.2,33.8,81,30.12,10.0,SSW,6.9,-,N/A,,Scattered Clouds,210,2013-02-02 22:35:00
4:55 PM,41.0,33.8,76,30.12,10.0,SSW,6.9,-,N/A,,Mostly Cloudy,210,2013-02-02 22:55:00
5:15 PM,37.4,33.8,87,30.12,10.0,SW,3.5,-,N/A,,Mostly Cloudy,220,2013-02-02 23:15:00
5:35 PM,39.2,35.6,87,30.12,10.0,South,4.6,-,N/A,,Mostly Cloudy,180,2013-02-02 23:35:00
5:55 PM,39.2,35.6,87,30.12,10.0,South,4.6,-,N/A,,Overcast,190,2013-02-02 23:55:00
6:15 PM,37.4,35.6,93,30.13,10.0,SSW,5.8,-,N/A,,Overcast,200,2013-02-03 00:15:00
6:35 PM,35.6,33.8,93,30.14,10.0,SW,3.5,-,N/A,,Overcast,230,2013-02-03 00:35:00
7:35 PM,37.4,33.8,87,30.16,10.0,WSW,6.9,-,N/A,,Mostly Cloudy,250,2013-02-03 01:35:00
8:15 PM,35.6,32.0,87,30.17,7.0,WSW,3.5,-,N/A,,Clear,250,2013-02-03 02:15:00
8:35 PM,33.8,32.0,93,30.17,5.0,WSW,5.8,-,N/A,,Clear,240,2013-02-03 02:35:00
8:55 PM,33.8,32.0,93,30.17,5.0,WSW,4.6,-,N/A,,Clear,240,2013-02-03 02:55:00
9:15 PM,33.8,32.0,93,30.17,5.0,Calm,Calm,-,N/A,,Clear,0,2013-02-03 03:15:00
9:35 PM,33.8,32.0,93,30.17,7.0,WSW,3.5,-,N/A,,Clear,250,2013-02-03 03:35:00
9:55 PM,33.8,32.0,93,30.17,10.0,WSW,3.5,-,N/A,,Clear,250,2013-02-03 03:55:00
10:15 PM,32.0,32.0,100,30.17,7.0,WSW,4.6,-,N/A,,Clear,250,2013-02-03 04:15:00
10:35 PM,33.8,32.0,93,30.16,10.0,West,4.6,-,N/A,,Clear,260,2013-02-03 04:35:00
10:55 PM,32.0,32.0,100,30.17,4.0,West,3.5,-,N/A,,Mostly Cloudy,280,2013-02-03 04:55:00
11:15 PM,33.8,32.0,93,30.16,5.0,Calm,Calm,-,N/A,,Scattered Clouds,0,2013-02-03 05:15:00
11:35 PM,32.0,30.2,93,30.16,1.5,Calm,Calm,-,N/A,,Mist,0,2013-02-03 05:35:00
11:55 PM,32.0,30.2,93,30.16,2.0,Calm,Calm,-,N/A,,Clear,0,2013-02-03 05:55:00